createdAt,value
2019-05-19T00:01:53.066Z,75.12
2019-05-19T00:02:53.086Z,75.60
2019-05-19T00:04:45.989Z,75.22
2019-05-19T00:05:45.996Z,75.31
2019-05-19T00:07:39.413Z,75.12
2019-05-19T00:08:39.416Z,75.12
2019-05-19T00:10:32.329Z,75.51
2019-05-19T00:11:32.342Z,75.70
2019-05-19T00:13:25.260Z,75.60
2019-05-19T00:14:25.266Z,75.70
2019-05-19T00:16:18.672Z,75.41
2019-05-19T00:17:18.685Z,75.51
2019-05-19T00:19:25.818Z,75.79
2019-05-19T00:20:12.103Z,75.89
2019-05-19T00:22:05.519Z,75.70
2019-05-19T00:23:05.527Z,75.79
2019-05-19T00:24:58.937Z,76.18
2019-05-19T00:25:58.946Z,75.51
2019-05-19T00:27:52.369Z,75.98
2019-05-19T00:28:52.367Z,75.70
2019-05-19T00:30:45.283Z,75.70
2019-05-19T00:31:45.292Z,75.56
2019-05-19T00:33:38.707Z,76.14
2019-05-19T00:34:38.713Z,76.42
2019-05-19T00:36:32.121Z,76.90
2019-05-19T00:37:32.133Z,76.71
2019-05-19T00:39:25.050Z,76.71
2019-05-19T00:40:25.056Z,76.81
2019-05-19T00:42:18.470Z,76.90
2019-05-19T00:43:18.480Z,77.57
2019-05-19T00:45:11.882Z,77.48
2019-05-19T00:46:11.895Z,77.38
2019-05-19T00:48:05.315Z,77.28
2019-05-19T00:49:05.315Z,77.19
2019-05-19T00:50:58.725Z,77.38
2019-05-19T00:51:58.735Z,77.38
2019-05-19T00:53:52.152Z,77.38
2019-05-19T00:54:52.156Z,77.38
2019-05-19T00:56:45.565Z,77.67
2019-05-19T00:57:45.577Z,78.24
2019-05-19T00:59:38.989Z,77.76
2019-05-19T01:00:38.995Z,78.14
2019-05-19T01:02:32.407Z,77.48
2019-05-19T01:03:32.414Z,77.38
2019-05-19T01:05:25.822Z,77.76
2019-05-19T01:06:25.833Z,77.95
2019-05-19T01:08:18.753Z,78.14
2019-05-19T01:09:18.755Z,78.05
2019-05-19T01:11:12.173Z,77.76
2019-05-19T01:12:12.177Z,77.86
2019-05-19T01:14:05.594Z,77.76
2019-05-19T01:15:05.595Z,78.24
2019-05-19T01:16:59.015Z,78.30
2019-05-19T01:17:59.015Z,78.39
2019-05-19T01:19:56.055Z,78.20
2019-05-19T01:20:52.434Z,78.39
2019-05-19T01:22:45.375Z,78.58
2019-05-19T01:23:45.359Z,78.78
2019-05-19T01:25:38.763Z,79.06
2019-05-19T01:26:38.776Z,79.16
2019-05-19T01:28:32.192Z,78.97
2019-05-19T01:29:32.197Z,78.97
2019-05-19T01:31:25.115Z,79.44
2019-05-19T01:32:25.119Z,79.35
2019-05-19T01:34:18.536Z,79.93
2019-05-19T01:35:18.537Z,79.83
2019-05-19T01:37:11.443Z,80.02
2019-05-19T01:38:11.457Z,79.73
2019-05-19T01:40:04.867Z,79.83
2019-05-19T01:41:04.872Z,80.11
2019-05-19T01:42:58.284Z,80.07
2019-05-19T01:43:58.290Z,79.83
2019-05-19T01:45:51.705Z,80.55
2019-05-19T01:46:51.706Z,80.36
2019-05-19T01:48:45.130Z,80.40
2019-05-19T01:49:45.143Z,79.98
2019-05-19T01:51:38.044Z,80.11
2019-05-19T01:52:38.056Z,80.30
2019-05-19T01:54:31.466Z,80.11
2019-05-19T01:55:31.474Z,80.36
2019-05-19T01:57:24.878Z,80.27
2019-05-19T01:58:24.889Z,80.46
2019-05-19T02:00:18.300Z,80.55
2019-05-19T02:01:18.313Z,80.84
2019-05-19T02:03:11.724Z,80.17
2019-05-19T02:04:11.728Z,80.74
2019-05-19T02:06:05.132Z,80.65
2019-05-19T02:07:05.146Z,80.84
2019-05-19T02:08:58.558Z,80.84
2019-05-19T02:09:58.567Z,80.84
2019-05-19T02:11:51.974Z,80.93
2019-05-19T02:12:51.981Z,80.46
2019-05-19T02:14:45.392Z,80.55
2019-05-19T02:15:45.399Z,80.36
2019-05-19T02:17:38.309Z,80.36
2019-05-19T02:18:38.323Z,80.84
2019-05-19T02:20:33.609Z,81.60
2019-05-19T02:21:31.239Z,81.79
2019-05-19T02:23:24.655Z,81.79
2019-05-19T02:24:24.657Z,82.08
2019-05-19T02:26:17.581Z,82.23
2019-05-19T02:27:17.578Z,82.42
2019-05-19T02:29:10.991Z,82.65
2019-05-19T02:30:10.997Z,82.84
2019-05-19T02:32:03.911Z,82.46
2019-05-19T02:33:03.919Z,82.81
2019-05-19T02:34:56.833Z,83.28
2019-05-19T02:35:56.836Z,83.38
2019-05-19T02:37:49.772Z,83.67
2019-05-19T02:38:49.756Z,83.76
2019-05-19T02:40:43.161Z,83.18
2019-05-19T02:41:43.187Z,83.95
2019-05-19T02:43:36.583Z,83.86
2019-05-19T02:44:36.599Z,83.38
2019-05-19T02:46:29.996Z,83.38
2019-05-19T02:47:30.003Z,84.14
2019-05-19T02:49:23.414Z,84.43
2019-05-19T02:50:23.421Z,83.57
2019-05-19T02:52:16.825Z,84.05
2019-05-19T02:53:16.837Z,83.95
2019-05-19T02:55:10.252Z,83.86
2019-05-19T02:56:10.251Z,83.86
2019-05-19T02:58:03.665Z,84.14
2019-05-19T02:59:03.669Z,83.86
2019-05-19T03:00:56.581Z,83.86
2019-05-19T03:01:56.593Z,83.95
2019-05-19T03:03:50.007Z,84.23
2019-05-19T03:04:50.012Z,84.23
2019-05-19T03:06:43.414Z,83.86
2019-05-19T03:07:43.426Z,84.52
2019-05-19T03:09:36.855Z,84.43
2019-05-19T03:10:36.843Z,84.62
2019-05-19T03:12:30.250Z,84.23
2019-05-19T03:13:30.263Z,84.14
2019-05-19T03:15:23.671Z,84.23
2019-05-19T03:16:23.688Z,83.86
2019-05-19T03:18:17.351Z,84.14
2019-05-19T03:19:17.092Z,83.86
2019-05-19T03:21:11.971Z,83.76
2019-05-19T03:22:10.517Z,83.70
2019-05-19T03:24:03.925Z,83.47
2019-05-19T03:25:03.943Z,83.67
2019-05-19T03:26:57.338Z,83.00
2019-05-19T03:27:57.395Z,83.00
2019-05-19T03:29:50.762Z,83.09
2019-05-19T03:30:50.768Z,82.90
2019-05-19T03:32:44.173Z,82.37
2019-05-19T03:33:44.182Z,82.81
2019-05-19T03:35:37.600Z,82.65
2019-05-19T03:36:37.601Z,82.81
2019-05-19T03:38:31.379Z,82.42
2019-05-19T03:39:31.085Z,82.42
2019-05-19T03:41:24.488Z,83.09
2019-05-19T03:42:24.498Z,83.18
2019-05-19T03:44:17.911Z,83.67
2019-05-19T03:45:17.918Z,83.76
2019-05-19T03:47:11.325Z,83.57
2019-05-19T03:48:11.342Z,84.14
2019-05-19T03:50:04.253Z,83.57
2019-05-19T03:51:04.257Z,84.14
2019-05-19T03:52:57.660Z,84.14
2019-05-19T03:53:57.670Z,83.57
2019-05-19T03:55:50.592Z,83.57
2019-05-19T03:56:50.591Z,83.95
2019-05-19T03:58:43.996Z,84.14
2019-05-19T03:59:44.008Z,83.18
2019-05-19T04:01:36.924Z,83.61
2019-05-19T04:02:36.930Z,83.23
2019-05-19T04:04:30.340Z,82.84
2019-05-19T04:05:30.345Z,83.23
2019-05-19T04:07:23.747Z,83.04
2019-05-19T04:08:23.758Z,82.65
2019-05-19T04:10:16.674Z,82.37
2019-05-19T04:11:16.693Z,82.37
2019-05-19T04:13:09.588Z,82.46
2019-05-19T04:14:09.601Z,82.37
2019-05-19T04:16:02.516Z,82.18
2019-05-19T04:17:02.539Z,82.46
2019-05-19T04:18:56.428Z,82.37
2019-05-19T04:19:56.441Z,82.08
2019-05-19T04:21:49.842Z,81.79
2019-05-19T04:22:49.362Z,81.74
2019-05-19T04:24:42.280Z,80.79
2019-05-19T04:25:42.292Z,80.59
2019-05-19T04:27:35.688Z,80.79
2019-05-19T04:28:35.701Z,80.40
2019-05-19T04:30:28.623Z,80.79
2019-05-19T04:31:28.625Z,80.59
2019-05-19T04:33:21.552Z,80.06
2019-05-19T04:34:21.547Z,80.06
2019-05-19T04:36:14.461Z,79.81
2019-05-19T04:37:14.468Z,79.52
2019-05-19T04:39:07.383Z,79.14
2019-05-19T04:40:07.393Z,78.86
2019-05-19T04:42:00.809Z,77.61
2019-05-19T04:43:00.817Z,77.08
2019-05-19T04:44:53.738Z,76.69
2019-05-19T04:45:53.734Z,76.40
2019-05-19T04:47:46.661Z,75.83
2019-05-19T04:48:46.665Z,75.64
2019-05-19T04:50:40.079Z,75.48
2019-05-19T04:51:40.086Z,75.29
2019-05-19T04:53:32.997Z,74.58
2019-05-19T04:54:33.008Z,75.26
2019-05-19T04:56:25.924Z,74.97
2019-05-19T04:57:25.933Z,75.26
2019-05-19T04:59:19.350Z,76.31
2019-05-19T05:00:19.352Z,76.50
2019-05-19T05:02:12.763Z,76.50
2019-05-19T05:03:12.774Z,76.98
2019-05-19T05:05:05.708Z,76.79
2019-05-19T05:06:05.701Z,76.79
2019-05-19T05:07:59.142Z,77.08
2019-05-19T05:08:59.128Z,76.89
2019-05-19T05:10:52.042Z,76.64
2019-05-19T05:11:52.076Z,76.64
2019-05-19T05:13:45.454Z,76.19
2019-05-19T05:14:45.470Z,75.62
2019-05-19T05:16:38.387Z,74.89
2019-05-19T05:17:38.398Z,74.79
2019-05-19T05:19:31.314Z,73.14
2019-05-19T05:20:31.326Z,72.28
2019-05-19T05:22:24.236Z,70.10
2019-05-19T05:23:24.250Z,69.53
2019-05-19T05:25:17.199Z,68.60
2019-05-19T05:26:17.181Z,67.29
2019-05-19T05:28:10.099Z,65.46
2019-05-19T05:29:10.116Z,65.20
2019-05-19T05:31:03.039Z,64.53
2019-05-19T05:32:03.047Z,63.51
2019-05-19T05:33:56.458Z,62.64
2019-05-19T05:34:56.474Z,62.16
2019-05-19T05:36:49.398Z,61.52
2019-05-19T05:37:49.412Z,61.90
2019-05-19T05:39:42.335Z,61.07
2019-05-19T05:40:42.343Z,60.30
2019-05-19T05:42:35.293Z,60.10
2019-05-19T05:43:35.281Z,59.14
2019-05-19T05:45:28.699Z,59.78
2019-05-19T05:46:28.718Z,60.07
2019-05-19T05:48:21.635Z,60.20
2019-05-19T05:49:21.648Z,59.81
2019-05-19T05:51:14.576Z,59.27
2019-05-19T05:52:14.588Z,59.27
2019-05-19T05:54:07.507Z,58.33
2019-05-19T05:55:07.525Z,57.56
2019-05-19T05:57:00.869Z,57.29
2019-05-19T05:58:00.463Z,56.98
2019-05-19T05:59:53.390Z,56.91
2019-05-19T06:00:53.404Z,56.65
2019-05-19T06:02:46.326Z,55.01
2019-05-19T06:03:46.347Z,54.27
2019-05-19T06:05:39.277Z,54.62
2019-05-19T06:06:39.286Z,56.16
2019-05-19T06:08:32.707Z,54.65
2019-05-19T06:09:32.727Z,53.30
2019-05-19T06:11:27.197Z,53.33
2019-05-19T06:12:27.166Z,52.77
2019-05-19T06:14:20.593Z,52.75
2019-05-19T06:15:20.607Z,53.23
2019-05-19T06:17:13.539Z,52.61
2019-05-19T06:18:13.558Z,51.47
2019-05-19T06:20:06.691Z,49.85
2019-05-19T06:21:06.511Z,48.32
2019-05-19T06:22:59.456Z,47.77
2019-05-19T06:23:59.457Z,47.09
2019-05-19T06:25:52.917Z,46.80
2019-05-19T06:26:52.905Z,46.80
2019-05-19T06:28:45.844Z,46.39
2019-05-19T06:29:45.862Z,46.80
2019-05-19T06:31:38.831Z,47.19
2019-05-19T06:32:38.821Z,46.41
2019-05-19T06:34:31.762Z,46.02
2019-05-19T06:35:31.785Z,45.05
2019-05-19T06:37:24.724Z,45.64
2019-05-19T06:38:24.750Z,45.25
2019-05-19T06:40:17.675Z,44.78
2019-05-19T06:41:17.707Z,44.59
2019-05-19T06:43:10.629Z,44.71
2019-05-19T06:44:10.651Z,44.59
2019-05-19T06:46:04.080Z,44.59
2019-05-19T06:47:04.099Z,44.27
2019-05-19T06:48:57.029Z,44.93
2019-05-19T06:49:57.055Z,44.93
2019-05-19T06:51:49.990Z,46.84
2019-05-19T06:52:50.013Z,47.02
2019-05-19T06:54:42.934Z,47.77
2019-05-19T06:55:42.955Z,48.52
2019-05-19T06:57:36.384Z,50.33
2019-05-19T06:58:36.400Z,50.33
2019-05-19T07:00:29.860Z,52.45
2019-05-19T07:01:29.843Z,51.87
2019-05-19T07:03:22.768Z,52.26
2019-05-19T07:04:22.829Z,52.17
2019-05-19T07:06:15.730Z,52.07
2019-05-19T07:07:15.805Z,51.97
2019-05-19T07:09:08.697Z,51.20
2019-05-19T07:10:08.718Z,51.78
2019-05-19T07:12:02.668Z,51.49
2019-05-19T07:13:02.685Z,51.20
2019-05-19T07:14:55.612Z,52.09
2019-05-19T07:15:55.633Z,50.74
2019-05-19T07:17:48.573Z,50.96
2019-05-19T07:18:48.590Z,50.09
2019-05-19T07:20:41.521Z,49.51
2019-05-19T07:21:41.541Z,49.41
2019-05-19T07:23:34.464Z,49.51
2019-05-19T07:24:34.487Z,49.70
2019-05-19T07:26:27.416Z,49.68
2019-05-19T07:27:27.430Z,49.68
2019-05-19T07:29:20.355Z,49.85
2019-05-19T07:30:20.406Z,50.55
2019-05-19T07:32:13.305Z,50.93
2019-05-19T07:33:13.320Z,50.81
2019-05-19T07:35:06.245Z,51.78
2019-05-19T07:36:06.273Z,52.07
2019-05-19T07:37:59.199Z,51.39
2019-05-19T07:38:59.209Z,51.97
2019-05-19T07:40:52.135Z,50.91
2019-05-19T07:41:52.151Z,51.59
2019-05-19T07:43:45.075Z,52.65
2019-05-19T07:44:45.473Z,52.65
2019-05-19T07:46:38.027Z,51.97
2019-05-19T07:47:38.042Z,51.29
2019-05-19T07:49:30.962Z,52.55
2019-05-19T07:50:30.989Z,51.78
2019-05-19T07:52:23.911Z,52.26
2019-05-19T07:53:23.924Z,52.75
2019-05-19T07:55:16.852Z,52.17
2019-05-19T07:56:16.874Z,52.75
2019-05-19T07:58:09.804Z,52.84
2019-05-19T07:59:09.818Z,52.33
2019-05-19T08:01:03.241Z,52.07
2019-05-19T08:02:03.260Z,53.52
2019-05-19T08:03:56.751Z,52.94
2019-05-19T08:04:56.688Z,53.33
2019-05-19T08:06:50.113Z,52.48
2019-05-19T08:07:50.124Z,52.19
2019-05-19T08:09:43.047Z,50.55
2019-05-19T08:10:43.064Z,50.45
2019-05-19T08:12:35.995Z,52.61
2019-05-19T08:13:36.009Z,52.12
2019-05-19T08:15:28.935Z,51.44
2019-05-19T08:16:28.956Z,50.67
2019-05-19T08:18:22.365Z,51.64
2019-05-19T08:19:22.520Z,50.57
2019-05-19T08:21:15.811Z,52.02
2019-05-19T08:22:15.822Z,51.35
2019-05-19T08:24:08.749Z,50.57
2019-05-19T08:25:08.763Z,50.96
2019-05-19T08:27:02.270Z,52.02
2019-05-19T08:28:08.368Z,52.22
2019-05-19T08:29:55.161Z,51.44
2019-05-19T08:30:55.155Z,51.06
2019-05-19T08:32:48.078Z,51.35
2019-05-19T08:33:48.100Z,51.83
2019-05-19T08:35:41.022Z,52.14
2019-05-19T08:36:41.032Z,51.25
2019-05-19T08:38:33.957Z,51.35
2019-05-19T08:39:33.973Z,51.64
2019-05-19T08:41:26.903Z,52.22
2019-05-19T08:42:26.914Z,52.05
2019-05-19T08:44:19.836Z,52.05
2019-05-19T08:45:19.855Z,51.28
2019-05-19T08:47:12.789Z,51.18
2019-05-19T08:48:12.801Z,50.31
2019-05-19T08:50:05.775Z,51.20
2019-05-19T08:51:05.739Z,51.01
2019-05-19T08:52:58.671Z,49.75
2019-05-19T08:53:58.683Z,49.56
2019-05-19T08:55:51.610Z,49.85
2019-05-19T08:56:51.626Z,49.85
2019-05-19T08:58:51.666Z,50.04
2019-05-19T08:59:44.574Z,49.75
2019-05-19T09:01:37.515Z,49.17
2019-05-19T09:02:37.509Z,49.37
2019-05-19T09:04:30.434Z,49.58
2019-05-19T09:05:30.449Z,50.62
2019-05-19T09:07:23.381Z,50.55
2019-05-19T09:08:23.434Z,48.20
2019-05-19T09:10:16.312Z,48.71
2019-05-19T09:11:16.333Z,48.52
2019-05-19T09:13:09.261Z,48.42
2019-05-19T09:14:09.274Z,48.61
2019-05-19T09:16:02.206Z,47.84
2019-05-19T09:17:02.286Z,46.58
2019-05-19T09:18:55.139Z,47.16
2019-05-19T09:19:55.160Z,47.06
2019-05-19T09:21:48.088Z,45.51
2019-05-19T09:22:48.103Z,46.29
2019-05-19T09:24:42.020Z,46.77
2019-05-19T09:25:42.046Z,46.87
2019-05-19T09:27:34.971Z,44.74
2019-05-19T09:28:34.982Z,45.03
2019-05-19T09:30:27.909Z,45.13
2019-05-19T09:31:27.926Z,45.78
2019-05-19T09:33:20.860Z,46.26
2019-05-19T09:34:20.922Z,45.78
2019-05-19T09:36:13.802Z,47.43
2019-05-19T09:37:13.817Z,45.78
2019-05-19T09:39:06.746Z,46.94
2019-05-19T09:40:06.763Z,46.94
2019-05-19T09:41:59.689Z,45.98
2019-05-19T09:42:59.705Z,46.39
2019-05-19T09:44:52.630Z,45.20
2019-05-19T09:45:52.647Z,45.61
2019-05-19T09:47:46.069Z,45.61
2019-05-19T09:48:46.083Z,45.01
2019-05-19T09:50:39.007Z,44.54
2019-05-19T09:51:39.025Z,45.49
2019-05-19T09:53:31.959Z,45.71
2019-05-19T09:54:44.151Z,45.03
2019-05-19T09:56:24.899Z,45.42
2019-05-19T09:57:24.912Z,46.00
2019-05-19T09:59:18.329Z,45.90
2019-05-19T10:00:18.351Z,45.61
2019-05-19T10:02:11.280Z,44.64
2019-05-19T10:03:11.292Z,44.26
2019-05-19T10:05:04.724Z,44.45
2019-05-19T10:06:04.740Z,43.29
2019-05-19T10:07:57.660Z,43.58
2019-05-19T10:08:57.674Z,44.06
2019-05-19T10:10:50.597Z,45.01
2019-05-19T10:11:50.625Z,44.35
2019-05-19T10:13:44.051Z,44.16
2019-05-19T10:14:44.068Z,44.26
2019-05-19T10:16:36.997Z,44.26
2019-05-19T10:17:37.007Z,42.90
2019-05-19T10:19:29.932Z,43.12
2019-05-19T10:20:29.953Z,41.97
2019-05-19T10:22:23.387Z,40.13
2019-05-19T10:23:23.391Z,38.39
2019-05-19T10:25:22.327Z,39.84
2019-05-19T10:26:16.336Z,41.10
2019-05-19T10:28:09.268Z,41.68
2019-05-19T10:29:09.290Z,41.30
2019-05-19T10:31:03.203Z,42.09
2019-05-19T10:32:03.221Z,42.55
2019-05-19T10:33:56.219Z,43.43
2019-05-19T10:34:56.164Z,44.32
2019-05-19T10:36:49.106Z,43.06
2019-05-19T10:37:49.107Z,43.54
2019-05-19T10:39:42.044Z,41.88
2019-05-19T10:40:42.054Z,41.10
2019-05-19T10:42:35.479Z,41.58
2019-05-19T10:43:35.501Z,41.88
2019-05-19T10:45:28.418Z,41.22
2019-05-19T10:46:28.446Z,40.13
2019-05-19T10:48:21.377Z,42.96
2019-05-19T10:49:21.388Z,42.57
2019-05-19T10:51:14.307Z,42.86
2019-05-19T10:52:14.328Z,43.26
2019-05-19T10:54:07.261Z,43.26
2019-05-19T10:55:07.274Z,42.36
2019-05-19T10:57:00.281Z,41.78
2019-05-19T10:58:00.218Z,41.58
2019-05-19T10:59:53.147Z,41.97
2019-05-19T11:00:53.171Z,42.65
2019-05-19T11:02:46.102Z,40.42
2019-05-19T11:03:46.115Z,40.42
2019-05-19T11:05:39.038Z,40.61
2019-05-19T11:06:39.058Z,41.97
2019-05-19T11:08:31.990Z,41.68
2019-05-19T11:09:32.007Z,41.10
2019-05-19T11:11:24.969Z,42.75
2019-05-19T11:12:24.956Z,42.65
2019-05-19T11:14:17.882Z,42.94
2019-05-19T11:15:17.903Z,40.42
2019-05-19T11:17:10.827Z,40.61
2019-05-19T11:18:10.840Z,41.78
2019-05-19T11:20:03.788Z,40.52
2019-05-19T11:21:03.847Z,42.26
2019-05-19T11:22:56.743Z,38.87
2019-05-19T11:23:56.757Z,39.84
2019-05-19T11:25:51.785Z,40.61
2019-05-19T11:26:49.699Z,40.42
2019-05-19T11:28:42.631Z,39.55
2019-05-19T11:29:42.643Z,39.65
2019-05-19T11:31:35.597Z,39.36
2019-05-19T11:32:35.592Z,38.48
2019-05-19T11:34:28.529Z,38.39
2019-05-19T11:35:28.535Z,38.48
2019-05-19T11:37:21.469Z,36.83
2019-05-19T11:38:21.482Z,37.32
2019-05-19T11:40:14.424Z,38.48
2019-05-19T11:41:14.423Z,38.31
2019-05-19T11:43:07.350Z,38.50
2019-05-19T11:44:07.383Z,38.50
2019-05-19T11:46:00.895Z,39.57
2019-05-19T11:47:00.324Z,40.64
2019-05-19T11:48:53.317Z,39.57
2019-05-19T11:49:53.282Z,39.18
2019-05-19T11:51:46.198Z,39.28
2019-05-19T11:52:46.239Z,40.23
2019-05-19T11:54:39.145Z,40.52
2019-05-19T11:55:39.174Z,40.61
2019-05-19T11:57:32.178Z,40.23
2019-05-19T11:58:32.137Z,41.30
2019-05-19T12:00:25.041Z,41.10
2019-05-19T12:01:25.117Z,41.78
2019-05-19T12:03:17.991Z,41.78
2019-05-19T12:04:18.010Z,39.06
2019-05-19T12:06:10.931Z,38.50
2019-05-19T12:07:10.951Z,39.45
2019-05-19T12:09:04.108Z,40.44
2019-05-19T12:10:04.238Z,40.73
2019-05-19T12:11:57.048Z,39.28
2019-05-19T12:12:57.075Z,39.47
2019-05-19T12:14:50.002Z,40.17
2019-05-19T12:15:50.017Z,40.36
2019-05-19T12:17:42.969Z,39.70
2019-05-19T12:18:42.984Z,39.20
2019-05-19T12:20:35.948Z,38.15
2019-05-19T12:21:35.994Z,38.73
2019-05-19T12:23:28.891Z,38.44
2019-05-19T12:24:28.888Z,38.81
2019-05-19T12:26:23.593Z,38.04
2019-05-19T12:27:21.842Z,39.01
2019-05-19T12:29:14.772Z,39.28
2019-05-19T12:30:14.786Z,38.99
2019-05-19T12:32:07.718Z,38.40
2019-05-19T12:33:07.733Z,37.92
2019-05-19T12:35:00.675Z,38.70
2019-05-19T12:36:00.697Z,38.91
2019-05-19T12:37:53.671Z,38.52
2019-05-19T12:38:53.656Z,38.52
2019-05-19T12:40:46.595Z,38.60
2019-05-19T12:41:46.602Z,37.73
2019-05-19T12:43:39.549Z,38.99
2019-05-19T12:44:39.546Z,39.86
2019-05-19T12:46:32.514Z,38.89
2019-05-19T12:47:32.500Z,39.18
2019-05-19T12:49:25.481Z,40.26
2019-05-19T12:50:25.455Z,39.59
2019-05-19T12:52:18.437Z,39.20
2019-05-19T12:53:18.443Z,38.04
2019-05-19T12:55:11.336Z,38.52
2019-05-19T12:56:11.365Z,37.65
2019-05-19T12:58:04.301Z,38.70
2019-05-19T12:59:04.322Z,38.23
2019-05-19T13:00:57.223Z,36.48
2019-05-19T13:01:57.243Z,36.87
2019-05-19T13:03:50.209Z,38.54
2019-05-19T13:05:04.296Z,37.47
2019-05-19T13:06:43.130Z,36.58
2019-05-19T13:07:43.149Z,37.86
2019-05-19T13:09:36.109Z,37.76
2019-05-19T13:10:36.090Z,37.65
2019-05-19T13:12:29.059Z,37.55
2019-05-19T13:13:29.049Z,37.35
2019-05-19T13:15:21.958Z,38.71
2019-05-19T13:16:21.980Z,37.94
2019-05-19T13:18:14.967Z,36.79
2019-05-19T13:19:14.939Z,36.69
2019-05-19T13:21:07.855Z,35.63
2019-05-19T13:22:07.897Z,36.52
2019-05-19T13:24:00.856Z,35.84
2019-05-19T13:25:00.831Z,34.87
2019-05-19T13:26:56.352Z,34.38
2019-05-19T13:27:53.786Z,34.77
2019-05-19T13:29:46.738Z,34.77
2019-05-19T13:30:46.724Z,33.99
2019-05-19T13:32:39.718Z,34.75
2019-05-19T13:33:39.674Z,35.33
2019-05-19T13:35:32.613Z,35.80
2019-05-19T13:36:32.641Z,35.61
2019-05-19T13:38:26.087Z,36.58
2019-05-19T13:39:26.080Z,36.29
2019-05-19T13:41:19.001Z,36.30
2019-05-19T13:42:19.016Z,36.40
2019-05-19T13:44:11.980Z,35.63
2019-05-19T13:45:11.974Z,35.84
2019-05-19T13:47:04.895Z,34.48
2019-05-19T13:48:04.891Z,32.82
2019-05-19T13:49:57.823Z,33.02
2019-05-19T13:50:57.836Z,33.12
2019-05-19T13:52:51.390Z,34.87
2019-05-19T13:53:50.786Z,34.67
2019-05-19T13:55:43.713Z,34.87
2019-05-19T13:56:43.742Z,34.77
2019-05-19T13:58:37.208Z,33.80
2019-05-19T13:59:37.177Z,33.70
2019-05-19T14:01:30.108Z,34.19
2019-05-19T14:02:30.126Z,35.06
2019-05-19T14:04:23.062Z,33.22
2019-05-19T14:05:23.077Z,34.38
2019-05-19T14:07:16.009Z,32.75
2019-05-19T14:08:16.026Z,32.55
2019-05-19T14:10:08.965Z,34.40
2019-05-19T14:11:08.974Z,34.01
2019-05-19T14:13:01.919Z,33.02
2019-05-19T14:14:01.932Z,33.02
2019-05-19T14:15:54.855Z,33.51
2019-05-19T14:16:54.894Z,33.99
2019-05-19T14:18:47.827Z,32.65
2019-05-19T14:19:47.827Z,31.58
2019-05-19T14:21:41.243Z,31.68
2019-05-19T14:22:41.270Z,31.87
2019-05-19T14:24:34.241Z,31.19
2019-05-19T14:25:34.217Z,31.48
2019-05-19T14:27:30.734Z,31.29
2019-05-19T14:28:27.170Z,31.58
2019-05-19T14:30:20.104Z,34.69
2019-05-19T14:31:20.123Z,38.67
2019-05-19T14:33:13.050Z,41.96
2019-05-19T14:34:13.069Z,42.54
2019-05-19T14:36:05.998Z,43.40
2019-05-19T14:37:06.014Z,43.98
2019-05-19T14:38:59.942Z,44.54
2019-05-19T14:39:59.961Z,44.54
2019-05-19T14:41:52.887Z,45.20
2019-05-19T14:42:52.906Z,44.81
2019-05-19T14:44:45.859Z,45.75
2019-05-19T14:45:45.858Z,45.75
2019-05-19T14:47:38.787Z,46.39
2019-05-19T14:48:38.809Z,47.16
2019-05-19T14:50:31.743Z,47.91
2019-05-19T14:51:31.771Z,47.91
2019-05-19T14:53:24.708Z,49.27
2019-05-19T14:54:24.714Z,49.27
2019-05-19T14:56:17.625Z,49.54
2019-05-19T14:57:17.659Z,49.54
2019-05-19T14:59:10.575Z,49.92
2019-05-19T15:00:10.589Z,50.09
2019-05-19T15:02:03.516Z,50.57
2019-05-19T15:03:03.536Z,51.32
2019-05-19T15:04:56.460Z,51.71
2019-05-19T15:05:56.512Z,52.29
2019-05-19T15:07:49.407Z,52.55
2019-05-19T15:08:49.422Z,53.23
2019-05-19T15:10:42.386Z,54.49
2019-05-19T15:11:42.370Z,53.81
2019-05-19T15:13:35.306Z,53.33
2019-05-19T15:14:35.313Z,53.23
2019-05-19T15:16:28.239Z,53.61
2019-05-19T15:17:28.354Z,53.42
2019-05-19T15:19:21.205Z,54.39
2019-05-19T15:20:21.199Z,54.58
2019-05-19T15:22:14.125Z,54.13
2019-05-19T15:23:14.142Z,53.35
2019-05-19T15:25:07.070Z,53.25
2019-05-19T15:26:07.085Z,53.35
2019-05-19T15:28:02.944Z,52.75
2019-05-19T15:29:00.029Z,53.39
2019-05-19T15:30:52.955Z,53.33
2019-05-19T15:31:52.994Z,53.39
2019-05-19T15:33:45.899Z,53.52
2019-05-19T15:34:45.912Z,52.43
2019-05-19T15:36:39.165Z,53.59
2019-05-19T15:37:38.856Z,53.39
2019-05-19T15:39:31.786Z,53.11
2019-05-19T15:40:31.806Z,53.11
2019-05-19T15:42:24.741Z,53.69
2019-05-19T15:43:24.750Z,53.20
2019-05-19T15:45:17.679Z,52.23
2019-05-19T15:46:18.326Z,53.30
2019-05-19T15:48:10.618Z,53.20
2019-05-19T15:49:10.643Z,52.79
2019-05-19T15:51:03.565Z,53.59
2019-05-19T15:52:05.463Z,53.69
2019-05-19T15:53:56.508Z,53.49
2019-05-19T15:54:56.519Z,53.39
2019-05-19T15:56:49.443Z,53.39
2019-05-19T15:57:49.465Z,51.87
2019-05-19T15:59:42.405Z,52.65
2019-05-19T16:00:42.404Z,50.91
2019-05-19T16:02:35.350Z,49.95
2019-05-19T16:03:35.345Z,50.23
2019-05-19T16:05:28.275Z,50.71
2019-05-19T16:06:28.293Z,50.11
2019-05-19T16:08:21.209Z,50.18
2019-05-19T16:09:21.230Z,50.38
2019-05-19T16:11:14.659Z,50.86
2019-05-19T16:12:14.670Z,51.25
2019-05-19T16:14:07.596Z,50.96
2019-05-19T16:15:07.626Z,50.96
2019-05-19T16:17:01.065Z,50.86
2019-05-19T16:18:00.547Z,50.09
2019-05-19T16:19:53.476Z,49.12
2019-05-19T16:20:53.488Z,49.48
2019-05-19T16:22:46.576Z,50.09
2019-05-19T16:23:46.595Z,50.28
2019-05-19T16:25:39.556Z,49.99
2019-05-19T16:26:39.534Z,50.35
2019-05-19T16:28:32.461Z,51.12
2019-05-19T16:29:32.476Z,50.76
2019-05-19T16:31:25.403Z,50.96
2019-05-19T16:32:25.420Z,51.34
2019-05-19T16:34:18.346Z,49.51
2019-05-19T16:35:18.393Z,49.41
2019-05-19T16:37:11.287Z,49.51
2019-05-19T16:38:11.308Z,49.32
2019-05-19T16:40:04.730Z,49.80
2019-05-19T16:41:04.738Z,49.60
2019-05-19T16:42:57.661Z,50.31
2019-05-19T16:43:57.677Z,50.89
2019-05-19T16:45:50.606Z,49.53
2019-05-19T16:46:50.615Z,49.22
2019-05-19T16:48:43.573Z,49.60
2019-05-19T16:49:43.555Z,49.73
2019-05-19T16:51:36.477Z,49.82
2019-05-19T16:52:36.496Z,49.73
2019-05-19T16:54:29.479Z,49.82
2019-05-19T16:55:29.434Z,49.90
2019-05-19T16:57:22.358Z,50.96
2019-05-19T16:58:22.377Z,50.67
2019-05-19T17:00:15.309Z,49.99
2019-05-19T17:01:15.316Z,50.67
2019-05-19T17:03:08.237Z,50.76
2019-05-19T17:04:08.256Z,50.67
2019-05-19T17:06:01.182Z,50.86
2019-05-19T17:07:03.127Z,50.09
2019-05-19T17:08:54.120Z,50.76
2019-05-19T17:09:54.134Z,51.25
2019-05-19T17:11:47.549Z,50.86
2019-05-19T17:12:47.567Z,50.96
2019-05-19T17:14:40.500Z,51.34
2019-05-19T17:15:40.508Z,52.01
2019-05-19T17:17:33.428Z,50.86
2019-05-19T17:18:33.446Z,52.11
2019-05-19T17:20:26.376Z,52.50
2019-05-19T17:21:26.384Z,52.11
2019-05-19T17:23:19.305Z,52.72
2019-05-19T17:24:19.324Z,53.01
2019-05-19T17:26:12.251Z,52.33
2019-05-19T17:27:12.367Z,52.43
2019-05-19T17:29:05.192Z,51.27
2019-05-19T17:30:05.203Z,51.85
2019-05-19T17:32:05.580Z,52.53
2019-05-19T17:32:58.144Z,51.95
2019-05-19T17:34:51.078Z,51.29
2019-05-19T17:35:51.083Z,49.82
2019-05-19T17:37:44.002Z,50.23
2019-05-19T17:38:44.023Z,50.52
2019-05-19T17:40:36.955Z,50.21
2019-05-19T17:41:36.963Z,51.37
2019-05-19T17:43:30.378Z,50.89
2019-05-19T17:44:30.395Z,51.27
2019-05-19T17:46:23.323Z,50.31
2019-05-19T17:47:23.367Z,50.31
2019-05-19T17:49:16.264Z,50.31
2019-05-19T17:50:16.275Z,50.21
2019-05-19T17:52:09.198Z,50.04
2019-05-19T17:53:09.226Z,49.46
2019-05-19T17:55:02.146Z,49.17
2019-05-19T17:56:02.157Z,49.17
2019-05-19T17:57:55.079Z,49.65
2019-05-19T17:58:55.095Z,49.75
2019-05-19T18:00:48.023Z,49.46
2019-05-19T18:01:48.036Z,49.07
2019-05-19T18:03:40.957Z,50.13
2019-05-19T18:04:40.974Z,50.13
2019-05-19T18:06:33.903Z,50.91
2019-05-19T18:07:33.913Z,50.81
2019-05-19T18:09:26.851Z,51.39
2019-05-19T18:10:26.928Z,51.39
2019-05-19T18:12:20.274Z,51.68
2019-05-19T18:13:20.293Z,51.65
2019-05-19T18:15:13.217Z,52.23
2019-05-19T18:16:13.229Z,52.53
2019-05-19T18:18:06.155Z,52.89
2019-05-19T18:19:06.164Z,53.47
2019-05-19T18:20:59.102Z,53.56
2019-05-19T18:21:59.107Z,53.56
2019-05-19T18:23:52.031Z,54.79
2019-05-19T18:24:52.044Z,54.69
2019-05-19T18:26:44.976Z,54.31
2019-05-19T18:27:44.986Z,54.88
2019-05-19T18:29:38.423Z,55.05
2019-05-19T18:30:38.422Z,55.05
2019-05-19T18:32:31.366Z,55.34
2019-05-19T18:33:31.356Z,55.92
2019-05-19T18:35:24.289Z,55.73